createdAt,value
2022-11-21T00:03:11.272Z,14.27
2022-11-21T00:08:14.318Z,15.00
2022-11-21T00:13:18.481Z,15.60
2022-11-21T00:18:20.323Z,14.77
2022-11-21T00:23:22.105Z,16.30
2022-11-21T00:28:25.311Z,14.53
2022-11-21T00:33:27.001Z,14.10
2022-11-21T00:38:28.740Z,14.40
2022-11-21T00:43:31.783Z,14.40
2022-11-21T00:48:33.540Z,15.80
2022-11-21T00:53:35.276Z,13.40
2022-11-21T00:58:38.391Z,13.60
2022-11-21T01:03:40.198Z,13.30
2022-11-21T01:08:43.304Z,12.87
2022-11-21T01:13:46.937Z,13.53
2022-11-21T01:18:49.029Z,13.70
2022-11-21T01:23:50.868Z,13.40
2022-11-21T01:28:53.983Z,13.93
2022-11-21T01:33:58.335Z,13.90
2022-11-21T01:39:01.156Z,14.27
2022-11-21T01:44:10.701Z,14.20
2022-11-21T01:49:13.768Z,13.37
2022-11-21T01:54:17.850Z,14.53
2022-11-21T01:59:22.692Z,14.80
2022-11-21T02:04:25.523Z,14.13
2022-11-21T02:09:27.604Z,15.07
2022-11-21T02:14:30.711Z,14.23
2022-11-21T02:19:35.406Z,14.33
2022-11-21T02:24:39.804Z,15.77
2022-11-21T02:29:42.959Z,15.77
2022-11-21T02:34:44.689Z,15.27
2022-11-21T02:39:46.425Z,15.77
2022-11-21T02:44:53.770Z,16.13
2022-11-21T02:49:58.098Z,16.23
2022-11-21T02:54:59.849Z,16.53
2022-11-21T03:00:03.575Z,16.17
2022-11-21T03:05:06.988Z,16.90
2022-11-21T03:10:09.347Z,16.03
2022-11-21T03:15:13.297Z,15.30
2022-11-21T03:20:15.486Z,16.03
2022-11-21T03:25:17.831Z,15.80
2022-11-21T03:30:21.232Z,16.00
2022-11-21T03:35:23.052Z,14.93
2022-11-21T03:40:24.869Z,15.87
2022-11-21T03:45:28.440Z,17.13
2022-11-21T03:50:30.297Z,16.13
2022-11-21T03:55:32.033Z,16.37
2022-11-21T04:00:35.134Z,16.50
2022-11-21T04:05:36.891Z,17.47
2022-11-21T04:10:38.731Z,16.93
2022-11-21T04:15:42.458Z,16.60
2022-11-21T04:20:44.367Z,16.43
2022-11-21T04:25:46.136Z,18.03
2022-11-21T04:30:49.285Z,16.00
2022-11-21T04:35:51.066Z,16.23
2022-11-21T04:40:52.836Z,18.07
2022-11-21T04:45:55.924Z,16.80
2022-11-21T04:50:57.987Z,16.07
2022-11-21T04:56:00.206Z,17.10
2022-11-21T05:01:07.819Z,16.60
2022-11-21T05:06:09.671Z,16.70
2022-11-21T05:11:30.303Z,17.20
2022-11-21T05:16:33.849Z,17.10
2022-11-21T05:21:35.677Z,17.60
2022-11-21T05:26:38.107Z,17.07
2022-11-21T05:31:41.366Z,16.40
2022-11-21T05:36:43.179Z,16.00
2022-11-21T05:41:44.925Z,16.10
2022-11-21T05:46:47.990Z,15.03
2022-11-21T05:51:49.748Z,15.70
2022-11-21T05:56:51.498Z,17.13
2022-11-21T06:02:13.461Z,18.23
2022-11-21T06:07:15.240Z,18.37
2022-11-21T06:12:20.272Z,16.13
2022-11-21T06:17:25.957Z,18.30
2022-11-21T06:22:27.678Z,17.60
2022-11-21T06:27:29.366Z,17.67
2022-11-21T06:32:36.064Z,17.33
2022-11-21T06:37:37.765Z,19.30
2022-11-21T06:42:39.487Z,18.10
2022-11-21T06:47:42.903Z,20.87
2022-11-21T06:52:44.641Z,19.73
2022-11-21T06:57:46.382Z,19.37
2022-11-21T07:02:49.507Z,19.20
2022-11-21T07:07:51.242Z,21.60
2022-11-21T07:13:12.754Z,20.20
2022-11-21T07:18:15.915Z,17.70
2022-11-21T07:23:17.657Z,20.37
2022-11-21T07:28:19.455Z,20.40
2022-11-21T07:33:22.609Z,19.90
2022-11-21T07:38:24.440Z,21.03
2022-11-21T07:43:26.199Z,17.57
2022-11-21T07:48:29.466Z,17.73
2022-11-21T07:53:32.287Z,17.60
2022-11-21T07:58:34.108Z,18.97
2022-11-21T08:03:37.270Z,17.87
2022-11-21T08:08:39.143Z,18.27
2022-11-21T08:13:40.871Z,16.30
2022-11-21T08:18:44.003Z,17.00
2022-11-21T08:23:45.743Z,19.20
2022-11-21T08:28:47.698Z,18.33
2022-11-21T08:33:50.836Z,19.10
2022-11-21T08:38:52.544Z,20.57
2022-11-21T08:43:54.282Z,18.37
2022-11-21T08:48:57.382Z,18.70
2022-11-21T08:53:59.550Z,19.30
2022-11-21T08:59:01.262Z,19.70
2022-11-21T09:04:04.592Z,18.73
2022-11-21T09:09:06.529Z,24.03
2022-11-21T09:14:27.245Z,16.17
2022-11-21T09:19:30.855Z,19.30
2022-11-21T09:24:32.860Z,25.20
2022-11-21T09:29:34.579Z,26.50
2022-11-21T09:34:37.758Z,20.43
2022-11-21T09:39:39.513Z,19.03
2022-11-21T09:45:03.983Z,17.00
2022-11-21T09:50:19.475Z,16.83
2022-11-21T09:55:24.287Z,16.63
2022-11-21T10:00:26.151Z,16.40
2022-11-21T10:05:35.266Z,17.13
2022-11-21T10:10:46.622Z,17.57
2022-11-21T10:15:54.665Z,17.70
2022-11-21T10:21:00.531Z,16.97
2022-11-21T10:26:09.845Z,17.60
2022-11-21T10:31:12.081Z,23.70
2022-11-21T10:36:20.918Z,18.70
2022-11-21T10:41:37.003Z,20.23
2022-11-21T10:46:38.759Z,19.10
2022-11-21T10:51:44.158Z,19.93
2022-11-21T10:56:45.871Z,20.53
2022-11-21T11:01:54.716Z,20.63
2022-11-21T11:06:59.937Z,22.23
2022-11-21T11:12:42.584Z,21.33
2022-11-21T11:17:44.349Z,22.27
2022-11-21T11:22:48.125Z,23.63
2022-11-21T11:27:49.981Z,25.00
2022-11-21T11:32:51.721Z,25.97
2022-11-21T11:37:59.532Z,25.43
2022-11-21T11:43:39.216Z,25.80
2022-11-21T11:49:03.740Z,24.57
2022-11-21T11:54:07.821Z,30.50
2022-11-21T11:59:13.288Z,25.57
2022-11-21T12:04:16.305Z,29.97
2022-11-21T12:09:23.293Z,27.63
2022-11-21T12:14:55.324Z,25.40
2022-11-21T12:19:57.063Z,25.63
2022-11-21T12:25:00.446Z,26.60
2022-11-21T12:30:32.584Z,23.20
2022-11-21T12:35:50.612Z,25.80
2022-11-21T12:40:59.099Z,22.27
2022-11-21T12:46:03.026Z,23.80
2022-11-21T12:51:52.213Z,23.53
2022-11-21T12:56:57.953Z,23.37
2022-11-21T13:02:03.092Z,25.07
2022-11-21T13:07:07.072Z,24.10
2022-11-21T13:12:13.379Z,24.20
2022-11-21T13:17:26.283Z,24.90
2022-11-21T13:22:56.714Z,27.90
2022-11-21T13:28:22.772Z,25.17
2022-11-21T13:33:52.786Z,26.33
2022-11-21T13:39:33.345Z,25.53
2022-11-21T13:44:40.605Z,25.60
2022-11-21T13:49:46.985Z,24.97
2022-11-21T13:55:18.430Z,24.27
2022-11-21T14:00:32.762Z,27.20
2022-11-21T14:05:47.906Z,19.50
2022-11-21T14:10:50.618Z,12.47
2022-11-21T14:16:05.487Z,8.43
2022-11-21T14:21:09.084Z,9.37
2022-11-21T14:26:12.111Z,9.07
2022-11-21T14:31:15.315Z,19.97
2022-11-21T14:36:18.548Z,22.17
2022-11-21T14:41:25.829Z,23.70
2022-11-21T14:46:29.661Z,22.00
2022-11-21T14:51:31.401Z,22.73
2022-11-21T14:56:33.332Z,24.40
2022-11-21T15:01:36.749Z,23.30
2022-11-21T15:06:40.767Z,20.40
2022-11-21T15:11:43.986Z,18.47
2022-11-21T15:16:47.893Z,21.20
2022-11-21T15:21:50.239Z,23.03
2022-11-21T15:26:51.997Z,21.83
2022-11-21T15:32:08.051Z,20.23
2022-11-21T15:37:13.060Z,21.30
2022-11-21T15:42:27.994Z,24.53
2022-11-21T15:47:31.150Z,21.63
2022-11-21T15:52:36.877Z,22.80
2022-11-21T15:57:38.628Z,20.33
2022-11-21T16:02:41.776Z,18.00
2022-11-21T16:07:43.634Z,16.37
2022-11-21T16:12:45.457Z,16.27
2022-11-21T16:17:48.558Z,14.20
2022-11-21T16:22:50.360Z,12.50
2022-11-21T16:27:52.123Z,12.90
2022-11-21T16:32:56.231Z,14.10
2022-11-21T16:37:58.062Z,13.70
2022-11-21T16:43:07.643Z,13.60
2022-11-21T16:48:10.812Z,13.53
2022-11-21T16:53:12.974Z,16.57
2022-11-21T16:58:14.864Z,16.70
2022-11-21T17:03:18.034Z,14.60
2022-11-21T17:08:19.871Z,14.60
2022-11-21T17:13:21.649Z,14.60
2022-11-21T17:18:24.831Z,15.60
2022-11-21T17:23:26.684Z,16.03
2022-11-21T17:28:28.488Z,15.87
2022-11-21T17:33:31.703Z,13.67
2022-11-21T17:38:33.500Z,14.30
2022-11-21T17:43:35.299Z,14.73
2022-11-21T17:48:38.578Z,15.03
2022-11-21T17:53:41.818Z,14.87
2022-11-21T17:58:43.550Z,13.70
2022-11-21T18:03:47.107Z,13.00
2022-11-21T18:08:49.063Z,13.90
2022-11-21T18:13:50.824Z,13.67
2022-11-21T18:18:54.052Z,14.00
2022-11-21T18:23:57.323Z,12.87
2022-11-21T18:29:34.641Z,13.40
2022-11-21T18:34:23.206Z,12.03
2022-11-21T18:39:26.759Z,12.40
2022-11-21T18:47:20.514Z,12.40
2022-11-21T18:52:22.833Z,12.40
2022-11-21T18:57:24.750Z,13.10
2022-11-21T19:02:28.119Z,13.00
2022-11-21T19:07:29.973Z,14.07
2022-11-21T19:12:36.257Z,15.30
2022-11-21T19:17:42.394Z,13.10
2022-11-21T19:22:44.180Z,14.00
2022-11-21T19:27:45.954Z,14.00
2022-11-21T19:32:49.055Z,15.00
2022-11-21T19:37:50.891Z,16.17
2022-11-21T19:42:52.747Z,15.20
2022-11-21T19:47:58.281Z,17.90
2022-11-21T19:53:00.159Z,17.70
2022-11-21T19:58:01.941Z,17.40
2022-11-21T20:03:05.161Z,18.33
2022-11-21T20:08:16.398Z,18.67
2022-11-21T20:13:19.353Z,18.27
2022-11-21T20:18:22.772Z,18.10
2022-11-21T20:23:24.596Z,18.40
2022-11-21T20:28:26.623Z,20.53
2022-11-21T20:33:29.781Z,20.77
2022-11-21T20:38:31.983Z,21.40
2022-11-21T20:44:10.558Z,21.57
2022-11-21T20:48:57.909Z,21.70
2022-11-21T20:54:03.358Z,21.80
2022-11-21T20:59:05.818Z,22.47
2022-11-21T21:04:12.095Z,22.27
2022-11-21T21:09:14.200Z,21.70
2022-11-21T21:14:15.956Z,24.47
2022-11-21T21:19:19.236Z,24.17
2022-11-21T21:24:21.116Z,24.27
2022-11-21T21:29:23.169Z,25.50
2022-11-21T21:34:26.302Z,26.77
2022-11-21T21:39:28.199Z,29.73
2022-11-21T21:44:33.399Z,28.30
2022-11-21T21:49:37.124Z,29.97
2022-11-21T21:54:38.877Z,30.67
2022-11-21T21:59:40.835Z,30.80
2022-11-21T22:04:46.973Z,33.50
2022-11-21T22:09:52.391Z,31.80
2022-11-21T22:14:54.141Z,36.23
2022-11-21T22:19:57.275Z,34.53
2022-11-21T22:24:59.085Z,34.87
2022-11-21T22:30:00.870Z,35.03
2022-11-21T22:35:04.427Z,36.10
2022-11-21T22:40:07.020Z,36.13
2022-11-21T22:45:09.907Z,37.87
2022-11-21T22:50:13.377Z,37.57
2022-11-21T22:55:15.263Z,38.90
2022-11-21T23:00:18.148Z,35.47
2022-11-21T23:05:21.301Z,38.20
2022-11-21T23:10:23.085Z,37.40
2022-11-21T23:15:24.982Z,36.97
2022-11-21T23:20:28.154Z,36.40
2022-11-21T23:25:30.219Z,33.10
2022-11-21T23:30:32.053Z,34.13
2022-11-21T23:35:35.129Z,33.17
2022-11-21T23:40:36.978Z,32.60
2022-11-21T23:45:38.790Z,32.67
2022-11-21T23:50:41.935Z,31.87
2022-11-21T23:55:43.913Z,31.33
